createdAt,value
2022-07-29T00:00:07.266Z,51.49
2022-07-29T00:01:06.286Z,51.33
2022-07-29T00:02:06.249Z,51.46
2022-07-29T00:03:06.286Z,51.24
2022-07-29T00:04:06.301Z,51.09
2022-07-29T00:05:06.233Z,50.96
2022-07-29T00:06:06.228Z,50.96
2022-07-29T00:07:06.231Z,51.04
2022-07-29T00:08:09.398Z,50.98
2022-07-29T00:09:07.205Z,50.99
2022-07-29T00:10:06.182Z,51.19
2022-07-29T00:11:06.235Z,51.09
2022-07-29T00:12:06.175Z,51.21
2022-07-29T00:13:06.171Z,51.29
2022-07-29T00:14:06.369Z,51.50
2022-07-29T00:15:06.154Z,52.13
2022-07-29T00:16:06.223Z,51.27
2022-07-29T00:17:06.170Z,51.81
2022-07-29T00:18:06.123Z,51.75
2022-07-29T00:19:06.166Z,52.78
2022-07-29T00:20:06.153Z,51.26
2022-07-29T00:21:06.130Z,50.99
2022-07-29T00:22:06.102Z,51.76
2022-07-29T00:23:06.346Z,51.47
2022-07-29T00:24:06.086Z,51.42
2022-07-29T00:25:06.073Z,53.02
2022-07-29T00:26:06.098Z,51.30
2022-07-29T00:27:06.066Z,51.18
2022-07-29T00:28:06.051Z,52.02
2022-07-29T00:29:33.205Z,52.53
2022-07-29T00:30:07.044Z,51.06
2022-07-29T00:31:06.087Z,51.28
2022-07-29T00:32:06.040Z,51.04
2022-07-29T00:33:09.105Z,51.22
2022-07-29T00:34:06.005Z,51.93
2022-07-29T00:35:06.067Z,51.24
2022-07-29T00:36:06.012Z,50.97
2022-07-29T00:37:05.990Z,51.07
2022-07-29T00:38:05.976Z,51.19
2022-07-29T00:39:05.974Z,51.02
2022-07-29T00:40:06.017Z,51.23
2022-07-29T00:41:05.975Z,52.98
2022-07-29T00:42:05.941Z,54.19
2022-07-29T00:43:05.941Z,51.47
2022-07-29T00:44:05.934Z,51.10
2022-07-29T00:45:05.928Z,50.95
2022-07-29T00:46:05.927Z,50.93
2022-07-29T00:47:06.041Z,51.51
2022-07-29T00:48:05.898Z,51.02
2022-07-29T00:49:05.938Z,51.19
2022-07-29T00:50:05.882Z,52.21
2022-07-29T00:51:05.871Z,51.89
2022-07-29T00:52:05.891Z,51.43
2022-07-29T00:53:05.859Z,53.38
2022-07-29T00:54:05.853Z,51.26
2022-07-29T00:55:08.669Z,51.47
2022-07-29T00:56:05.858Z,51.27
2022-07-29T00:57:06.518Z,51.42
2022-07-29T00:58:05.817Z,51.47
2022-07-29T00:59:06.000Z,51.54
2022-07-29T01:00:05.802Z,51.86
2022-07-29T01:01:05.846Z,51.67
2022-07-29T01:02:06.041Z,51.55
2022-07-29T01:03:05.789Z,51.50
2022-07-29T01:04:05.774Z,51.10
2022-07-29T01:05:05.769Z,51.40
2022-07-29T01:06:05.759Z,50.91
2022-07-29T01:07:05.764Z,50.86
2022-07-29T01:08:05.745Z,50.95
2022-07-29T01:09:05.738Z,51.60
2022-07-29T01:10:05.728Z,51.24
2022-07-29T01:11:05.724Z,51.25
2022-07-29T01:12:05.727Z,51.18
2022-07-29T01:13:05.706Z,51.27
2022-07-29T01:14:05.694Z,51.47
2022-07-29T01:15:05.687Z,51.43
2022-07-29T01:16:05.740Z,51.84
2022-07-29T01:17:05.690Z,51.58
2022-07-29T01:18:05.664Z,51.22
2022-07-29T01:19:05.660Z,53.68
2022-07-29T01:20:05.643Z,51.63
2022-07-29T01:21:05.638Z,51.99
2022-07-29T01:22:05.643Z,51.06
2022-07-29T01:23:05.743Z,51.30
2022-07-29T01:24:05.607Z,52.18
2022-07-29T01:25:05.604Z,51.03
2022-07-29T01:26:05.907Z,50.88
2022-07-29T01:27:05.608Z,51.63
2022-07-29T01:28:05.577Z,51.81
2022-07-29T01:29:07.406Z,51.63
2022-07-29T01:30:05.603Z,51.24
2022-07-29T01:31:05.650Z,51.15
2022-07-29T01:32:05.713Z,51.01
2022-07-29T01:33:05.544Z,50.96
2022-07-29T01:34:05.532Z,51.72
2022-07-29T01:35:05.522Z,51.93
2022-07-29T01:36:05.514Z,51.82
2022-07-29T01:37:05.527Z,51.98
2022-07-29T01:38:05.501Z,53.13
2022-07-29T01:39:05.497Z,51.63
2022-07-29T01:40:05.499Z,51.51
2022-07-29T01:41:05.475Z,51.61
2022-07-29T01:42:05.629Z,53.06
2022-07-29T01:43:05.462Z,51.38
2022-07-29T01:44:05.450Z,51.14
2022-07-29T01:45:05.456Z,51.30
2022-07-29T01:46:05.465Z,51.31
2022-07-29T01:47:05.595Z,51.07
2022-07-29T01:48:05.631Z,51.14
2022-07-29T01:49:05.531Z,51.18
2022-07-29T01:50:05.410Z,52.70
2022-07-29T01:51:05.402Z,51.51
2022-07-29T01:52:05.409Z,52.10
2022-07-29T01:53:05.390Z,51.73
2022-07-29T01:54:05.448Z,51.78
2022-07-29T01:55:05.375Z,51.62
2022-07-29T01:56:05.362Z,51.24
2022-07-29T01:57:05.373Z,51.44
2022-07-29T01:58:05.350Z,51.67
2022-07-29T01:59:05.344Z,51.63
2022-07-29T02:00:05.324Z,51.46
2022-07-29T02:01:05.325Z,52.15
2022-07-29T02:02:05.380Z,51.83
2022-07-29T02:03:05.309Z,52.17
2022-07-29T02:04:05.294Z,51.63
2022-07-29T02:05:05.491Z,51.31
2022-07-29T02:06:05.284Z,51.44
2022-07-29T02:07:05.292Z,51.79
2022-07-29T02:08:05.277Z,51.76
2022-07-29T02:09:05.264Z,52.35
2022-07-29T02:10:05.331Z,54.17
2022-07-29T02:11:05.252Z,51.42
2022-07-29T02:12:05.315Z,51.67
2022-07-29T02:13:05.231Z,51.92
2022-07-29T02:14:05.227Z,52.16
2022-07-29T02:15:05.215Z,51.91
2022-07-29T02:16:05.242Z,51.77
2022-07-29T02:17:05.211Z,51.54
2022-07-29T02:18:05.190Z,51.29
2022-07-29T02:19:05.188Z,51.43
2022-07-29T02:20:05.180Z,52.46
2022-07-29T02:21:05.204Z,51.85
2022-07-29T02:22:06.178Z,52.02
2022-07-29T02:23:05.149Z,52.46
2022-07-29T02:24:05.151Z,51.76
2022-07-29T02:25:05.132Z,53.72
2022-07-29T02:26:05.128Z,51.43
2022-07-29T02:27:05.135Z,51.96
2022-07-29T02:28:05.114Z,52.55
2022-07-29T02:29:05.115Z,52.87
2022-07-29T02:30:05.101Z,51.71
2022-07-29T02:31:05.137Z,51.88
2022-07-29T02:32:05.143Z,53.25
2022-07-29T02:33:05.080Z,52.09
2022-07-29T02:34:05.073Z,52.28
2022-07-29T02:35:05.064Z,52.81
2022-07-29T02:36:05.059Z,52.02
2022-07-29T02:37:05.055Z,53.78
2022-07-29T02:38:05.039Z,51.47
2022-07-29T02:39:05.048Z,51.46
2022-07-29T02:40:05.030Z,52.95
2022-07-29T02:41:05.013Z,51.86
2022-07-29T02:42:05.037Z,52.68
2022-07-29T02:43:04.997Z,51.92
2022-07-29T02:44:04.998Z,51.82
2022-07-29T02:45:04.985Z,51.76
2022-07-29T02:46:05.108Z,51.46
2022-07-29T02:47:05.981Z,51.39
2022-07-29T02:48:04.960Z,52.09
2022-07-29T02:49:04.985Z,52.02
2022-07-29T02:50:05.005Z,53.81
2022-07-29T02:51:04.932Z,51.58
2022-07-29T02:52:04.942Z,53.52
2022-07-29T02:53:04.914Z,52.24
2022-07-29T02:54:04.912Z,51.45
2022-07-29T02:55:04.908Z,51.23
2022-07-29T02:56:04.910Z,51.49
2022-07-29T02:57:04.905Z,53.70
2022-07-29T02:58:04.872Z,52.33
2022-07-29T02:59:04.872Z,51.90
2022-07-29T03:00:04.863Z,51.87
2022-07-29T03:01:04.856Z,51.69
2022-07-29T03:02:04.920Z,51.58
2022-07-29T03:03:04.843Z,51.44
2022-07-29T03:04:04.835Z,51.48
2022-07-29T03:05:04.860Z,51.31
2022-07-29T03:06:04.813Z,54.06
2022-07-29T03:07:04.819Z,51.89
2022-07-29T03:08:04.807Z,54.21
2022-07-29T03:09:07.838Z,53.13
2022-07-29T03:10:05.784Z,52.16
2022-07-29T03:11:05.795Z,51.94
2022-07-29T03:12:04.788Z,51.79
2022-07-29T03:13:04.754Z,53.11
2022-07-29T03:14:04.757Z,54.16
2022-07-29T03:15:04.752Z,52.77
2022-07-29T03:16:04.785Z,54.78
2022-07-29T03:17:04.744Z,52.71
2022-07-29T03:18:04.724Z,53.66
2022-07-29T03:19:04.718Z,52.89
2022-07-29T03:20:04.715Z,52.20
2022-07-29T03:21:04.700Z,53.49
2022-07-29T03:22:04.712Z,53.35
2022-07-29T03:23:04.681Z,51.80
2022-07-29T03:24:08.288Z,52.40
2022-07-29T03:25:05.676Z,51.48
2022-07-29T03:26:04.668Z,54.55
2022-07-29T03:27:04.672Z,53.63
2022-07-29T03:28:04.653Z,54.77
2022-07-29T03:29:04.642Z,56.00
2022-07-29T03:30:04.635Z,52.28
2022-07-29T03:31:04.682Z,53.69
2022-07-29T03:32:07.960Z,53.54
2022-07-29T03:33:04.609Z,51.45
2022-07-29T03:34:05.606Z,53.44
2022-07-29T03:35:04.593Z,51.78
2022-07-29T03:36:04.583Z,53.33
2022-07-29T03:37:04.590Z,54.69
2022-07-29T03:38:04.570Z,57.85
2022-07-29T03:39:04.552Z,53.19
2022-07-29T03:40:04.611Z,53.69
2022-07-29T03:41:04.545Z,54.80
2022-07-29T03:42:04.540Z,53.23
2022-07-29T03:43:04.550Z,53.89
2022-07-29T03:44:04.526Z,54.52
2022-07-29T03:45:04.512Z,51.60
2022-07-29T03:46:04.569Z,55.67
2022-07-29T03:47:04.495Z,54.08
2022-07-29T03:48:04.509Z,54.15
2022-07-29T03:49:04.574Z,53.74
2022-07-29T03:50:04.496Z,54.37
2022-07-29T03:51:04.467Z,54.12
2022-07-29T03:52:04.464Z,53.72
2022-07-29T03:53:04.466Z,54.05
2022-07-29T03:54:14.302Z,55.26
2022-07-29T03:55:05.439Z,55.48
2022-07-29T03:56:04.611Z,53.40
2022-07-29T03:57:04.430Z,52.41
2022-07-29T03:58:04.437Z,54.80
2022-07-29T03:59:04.461Z,53.53
2022-07-29T04:00:04.409Z,57.81
2022-07-29T04:01:04.395Z,55.01
2022-07-29T04:02:04.500Z,51.29
2022-07-29T04:03:04.468Z,51.83
2022-07-29T04:04:04.421Z,50.96
2022-07-29T04:05:04.364Z,54.25
2022-07-29T04:06:04.360Z,53.55
2022-07-29T04:07:04.347Z,53.61
2022-07-29T04:08:04.632Z,54.17
2022-07-29T04:09:04.330Z,52.05
2022-07-29T04:10:04.327Z,52.29
2022-07-29T04:11:04.313Z,54.61
2022-07-29T04:12:04.591Z,52.91
2022-07-29T04:13:04.348Z,56.05
2022-07-29T04:14:04.293Z,54.16
2022-07-29T04:15:04.286Z,52.81
2022-07-29T04:16:04.322Z,51.53
2022-07-29T04:17:04.264Z,54.20
2022-07-29T04:18:04.283Z,51.40
2022-07-29T04:19:04.260Z,54.79
2022-07-29T04:20:04.256Z,52.44
2022-07-29T04:21:04.251Z,56.26
2022-07-29T04:22:04.234Z,54.84
2022-07-29T04:23:04.232Z,52.68
2022-07-29T04:24:04.337Z,55.89
2022-07-29T04:25:04.672Z,52.58
2022-07-29T04:26:04.195Z,51.84
2022-07-29T04:27:04.196Z,53.10
2022-07-29T04:28:04.348Z,53.36
2022-07-29T04:29:04.177Z,56.67
2022-07-29T04:30:04.164Z,53.43
2022-07-29T04:31:04.215Z,52.27
2022-07-29T04:32:04.145Z,53.69
2022-07-29T04:33:04.157Z,57.06
2022-07-29T04:34:04.144Z,52.99
2022-07-29T04:35:04.126Z,51.78
2022-07-29T04:36:04.122Z,53.67
2022-07-29T04:37:05.127Z,54.31
2022-07-29T04:38:04.113Z,56.43
2022-07-29T04:39:04.094Z,52.94
2022-07-29T04:40:04.092Z,56.86
2022-07-29T04:41:04.077Z,54.96
2022-07-29T04:42:04.074Z,55.46
2022-07-29T04:43:06.073Z,54.40
2022-07-29T04:44:04.060Z,53.45
2022-07-29T04:45:04.054Z,54.77
2022-07-29T04:46:04.117Z,57.51
2022-07-29T04:47:04.033Z,57.80
2022-07-29T04:48:04.043Z,58.60
2022-07-29T04:49:04.174Z,53.36
2022-07-29T04:50:04.019Z,52.79
2022-07-29T04:51:03.999Z,54.84
2022-07-29T04:52:04.163Z,54.98
2022-07-29T04:53:04.008Z,59.69
2022-07-29T04:54:03.981Z,53.41
2022-07-29T04:55:03.975Z,54.80
2022-07-29T04:56:03.980Z,55.35
2022-07-29T04:57:03.969Z,54.63
2022-07-29T04:58:03.973Z,56.46
2022-07-29T04:59:03.943Z,55.58
2022-07-29T05:00:03.939Z,54.68
2022-07-29T05:01:03.958Z,54.94
2022-07-29T05:02:03.969Z,56.78
2022-07-29T05:03:04.193Z,54.41
2022-07-29T05:04:03.912Z,54.72
2022-07-29T05:05:03.900Z,53.43
2022-07-29T05:06:03.903Z,53.29
2022-07-29T05:07:03.882Z,52.44
2022-07-29T05:08:03.897Z,57.77
2022-07-29T05:09:03.873Z,56.85
2022-07-29T05:10:03.863Z,55.44
2022-07-29T05:11:12.561Z,55.81
2022-07-29T05:12:04.848Z,56.50
2022-07-29T05:13:03.852Z,57.82
2022-07-29T05:14:03.834Z,56.31
2022-07-29T05:15:03.822Z,51.83
2022-07-29T05:16:03.846Z,52.82
2022-07-29T05:17:03.808Z,55.29
2022-07-29T05:18:03.827Z,53.87
2022-07-29T05:19:03.801Z,52.78
2022-07-29T05:20:03.791Z,51.97
2022-07-29T05:21:03.785Z,54.73
2022-07-29T05:22:03.779Z,56.08
2022-07-29T05:23:03.783Z,52.59
2022-07-29T05:24:03.769Z,52.92
2022-07-29T05:25:08.811Z,55.29
2022-07-29T05:26:03.745Z,53.42
2022-07-29T05:27:03.735Z,55.68
2022-07-29T05:28:03.746Z,54.77
2022-07-29T05:29:03.719Z,53.33
2022-07-29T05:30:03.710Z,55.23
2022-07-29T05:31:03.793Z,55.47
2022-07-29T05:32:03.698Z,56.10
2022-07-29T05:33:03.710Z,55.43
2022-07-29T05:34:03.683Z,52.06
2022-07-29T05:35:03.679Z,54.16
2022-07-29T05:36:03.670Z,54.48
2022-07-29T05:37:03.657Z,54.83
2022-07-29T05:38:03.655Z,59.08
2022-07-29T05:39:03.663Z,54.51
2022-07-29T05:40:03.643Z,53.84
2022-07-29T05:41:03.623Z,53.65
2022-07-29T05:42:03.624Z,53.13
2022-07-29T05:43:03.615Z,55.39
2022-07-29T05:44:03.626Z,55.62
2022-07-29T05:45:03.599Z,53.56
2022-07-29T05:46:03.623Z,53.95
2022-07-29T05:47:03.653Z,52.69
2022-07-29T05:48:03.576Z,53.14
2022-07-29T05:49:03.594Z,53.88
2022-07-29T05:50:03.553Z,56.39
2022-07-29T05:51:03.551Z,55.17
2022-07-29T05:52:03.557Z,55.99
2022-07-29T05:53:19.553Z,52.99
2022-07-29T05:54:04.547Z,53.50
2022-07-29T05:55:03.511Z,53.33
2022-07-29T05:56:03.512Z,55.33
2022-07-29T05:57:03.504Z,51.85
2022-07-29T05:58:03.488Z,52.56
2022-07-29T05:59:03.500Z,53.09
2022-07-29T06:00:03.483Z,53.45
2022-07-29T06:01:03.591Z,54.90
2022-07-29T06:02:03.463Z,52.02
2022-07-29T06:03:03.458Z,55.17
2022-07-29T06:04:03.484Z,57.39
2022-07-29T06:05:03.447Z,56.60
2022-07-29T06:06:03.436Z,52.89
2022-07-29T06:07:03.425Z,56.07
2022-07-29T06:08:03.431Z,54.14
2022-07-29T06:09:12.525Z,54.74
2022-07-29T06:10:04.404Z,52.43
2022-07-29T06:11:03.391Z,56.11
2022-07-29T06:12:03.385Z,55.76
2022-07-29T06:13:03.377Z,53.70
2022-07-29T06:14:03.391Z,53.13
2022-07-29T06:15:03.362Z,52.53
2022-07-29T06:16:03.404Z,55.06
2022-07-29T06:17:03.349Z,54.71
2022-07-29T06:18:03.337Z,54.14
2022-07-29T06:19:03.350Z,54.72
2022-07-29T06:20:03.326Z,54.14
2022-07-29T06:21:03.313Z,54.74
2022-07-29T06:22:03.315Z,51.86
2022-07-29T06:23:03.303Z,55.02
2022-07-29T06:24:03.427Z,53.02
2022-07-29T06:25:03.304Z,54.81
2022-07-29T06:26:03.286Z,55.58
2022-07-29T06:27:03.278Z,55.62
2022-07-29T06:28:03.265Z,56.33
2022-07-29T06:29:03.276Z,56.57
2022-07-29T06:30:03.252Z,55.85
2022-07-29T06:31:03.324Z,53.62
2022-07-29T06:32:03.236Z,53.71
2022-07-29T06:33:03.220Z,51.99
2022-07-29T06:34:03.444Z,56.15
2022-07-29T06:35:31.970Z,54.89
2022-07-29T06:36:04.201Z,55.26
2022-07-29T06:37:03.191Z,54.50
2022-07-29T06:38:03.180Z,54.35
2022-07-29T06:39:04.195Z,55.19
2022-07-29T06:40:03.203Z,54.65
2022-07-29T06:41:03.252Z,55.29
2022-07-29T06:42:03.146Z,53.83
2022-07-29T06:43:03.150Z,55.36
2022-07-29T06:44:03.167Z,53.82
2022-07-29T06:45:08.986Z,53.12
2022-07-29T06:46:04.301Z,56.18
2022-07-29T06:47:03.113Z,56.17
2022-07-29T06:48:03.103Z,56.04
2022-07-29T06:49:03.173Z,54.46
2022-07-29T06:50:03.083Z,54.27
2022-07-29T06:51:03.079Z,54.06
2022-07-29T06:52:03.070Z,56.35
2022-07-29T06:53:03.067Z,53.48
2022-07-29T06:54:03.753Z,56.78
2022-07-29T06:55:03.057Z,53.20
2022-07-29T06:56:03.032Z,56.34
2022-07-29T06:57:03.028Z,54.86
2022-07-29T06:58:03.047Z,53.65
2022-07-29T06:59:03.083Z,55.66
2022-07-29T07:00:03.006Z,55.27
2022-07-29T07:01:03.059Z,51.78
2022-07-29T07:02:03.025Z,55.53
2022-07-29T07:03:02.987Z,54.00
2022-07-29T07:04:02.994Z,53.32
2022-07-29T07:05:02.979Z,53.96
2022-07-29T07:06:02.959Z,52.78
2022-07-29T07:07:02.956Z,57.21
2022-07-29T07:08:02.952Z,56.95
2022-07-29T07:09:02.955Z,55.57
2022-07-29T07:10:02.932Z,53.05
2022-07-29T07:11:02.926Z,56.46
2022-07-29T07:12:02.919Z,56.11
2022-07-29T07:13:02.906Z,55.72
2022-07-29T07:14:04.085Z,54.40
2022-07-29T07:15:03.899Z,51.07
2022-07-29T07:16:02.882Z,53.02
2022-07-29T07:17:02.901Z,53.22
2022-07-29T07:18:02.867Z,52.58
2022-07-29T07:19:02.876Z,55.02
2022-07-29T07:20:02.851Z,53.62
2022-07-29T07:21:02.841Z,52.23
2022-07-29T07:22:02.840Z,53.72
2022-07-29T07:23:02.847Z,54.12
2022-07-29T07:24:02.852Z,56.16
2022-07-29T07:25:02.819Z,55.49
2022-07-29T07:26:02.805Z,55.77
2022-07-29T07:27:02.803Z,56.03
2022-07-29T07:28:02.791Z,56.53
2022-07-29T07:29:02.784Z,54.82
2022-07-29T07:30:02.790Z,57.72
2022-07-29T07:31:02.774Z,53.20
2022-07-29T07:32:02.812Z,55.94
2022-07-29T07:33:02.759Z,55.77
2022-07-29T07:34:02.750Z,55.31
2022-07-29T07:35:02.765Z,55.79
2022-07-29T07:36:02.732Z,57.40
2022-07-29T07:37:02.729Z,54.79
2022-07-29T07:38:02.714Z,54.64
2022-07-29T07:39:02.704Z,55.42
2022-07-29T07:40:02.714Z,55.81
2022-07-29T07:41:02.697Z,56.77
2022-07-29T07:42:02.690Z,56.21
2022-07-29T07:43:02.680Z,56.75
2022-07-29T07:44:02.666Z,55.06
2022-07-29T07:45:13.531Z,55.64
2022-07-29T07:46:03.754Z,56.14
2022-07-29T07:47:03.916Z,56.88
2022-07-29T07:48:03.634Z,55.14
2022-07-29T07:49:02.662Z,58.15
2022-07-29T07:50:02.635Z,55.28
2022-07-29T07:51:02.623Z,54.17
2022-07-29T07:52:02.824Z,55.93
2022-07-29T07:53:02.599Z,54.08
2022-07-29T07:54:02.786Z,53.94
2022-07-29T07:55:02.604Z,57.41
2022-07-29T07:56:11.735Z,56.79
2022-07-29T07:57:03.580Z,58.38
2022-07-29T07:58:02.559Z,56.80
2022-07-29T07:59:02.558Z,55.23
2022-07-29T08:00:02.556Z,56.59
2022-07-29T08:01:02.619Z,53.99
2022-07-29T08:02:02.693Z,55.72
2022-07-29T08:03:02.567Z,56.71
2022-07-29T08:04:02.518Z,56.71
2022-07-29T08:05:02.543Z,55.03
2022-07-29T08:06:02.501Z,54.75
2022-07-29T08:07:02.501Z,53.72
2022-07-29T08:08:02.495Z,55.11
2022-07-29T08:09:26.820Z,56.23
2022-07-29T08:10:03.489Z,57.17
2022-07-29T08:11:06.956Z,55.95
2022-07-29T08:12:03.460Z,55.93
2022-07-29T08:13:02.455Z,54.93
2022-07-29T08:14:02.442Z,53.84
2022-07-29T08:15:02.449Z,54.65
2022-07-29T08:16:02.500Z,54.49
2022-07-29T08:17:02.603Z,56.18
2022-07-29T08:18:08.034Z,56.23
2022-07-29T08:19:02.410Z,54.58
2022-07-29T08:20:02.409Z,54.01
2022-07-29T08:21:02.387Z,57.48
2022-07-29T08:22:02.380Z,55.67
2022-07-29T08:23:02.372Z,55.12
2022-07-29T08:24:06.659Z,54.85
2022-07-29T08:25:03.558Z,53.89
2022-07-29T08:26:02.358Z,56.22
2022-07-29T08:27:02.352Z,56.12
2022-07-29T08:28:02.333Z,54.27
2022-07-29T08:29:02.332Z,53.90
2022-07-29T08:30:02.336Z,52.86
2022-07-29T08:31:02.326Z,55.83
2022-07-29T08:32:02.357Z,56.77
2022-07-29T08:33:02.294Z,55.39
2022-07-29T08:34:02.279Z,52.28
2022-07-29T08:35:02.292Z,56.24
2022-07-29T08:36:02.265Z,55.66
2022-07-29T08:37:02.258Z,54.72
2022-07-29T08:38:02.258Z,54.58
2022-07-29T08:39:02.258Z,51.79
2022-07-29T08:40:02.284Z,54.22
2022-07-29T08:41:02.237Z,56.74
2022-07-29T08:42:02.262Z,53.85
2022-07-29T08:43:02.225Z,55.26
2022-07-29T08:44:02.209Z,54.65
2022-07-29T08:45:02.218Z,56.04
2022-07-29T08:46:02.235Z,52.91
2022-07-29T08:47:02.189Z,50.53
2022-07-29T08:48:02.182Z,51.45
2022-07-29T08:49:02.210Z,50.49
2022-07-29T08:50:02.174Z,54.24
2022-07-29T08:51:02.520Z,53.72
2022-07-29T08:52:02.150Z,52.85
2022-07-29T08:53:02.141Z,54.20
2022-07-29T08:54:02.135Z,53.10
2022-07-29T08:55:02.235Z,53.14
2022-07-29T08:56:02.119Z,51.39
2022-07-29T08:57:02.112Z,51.14
2022-07-29T08:58:02.105Z,54.38
2022-07-29T08:59:02.100Z,54.11
2022-07-29T09:00:06.451Z,52.84
2022-07-29T09:01:03.172Z,56.51
2022-07-29T09:02:02.153Z,53.98
2022-07-29T09:03:02.093Z,52.85
2022-07-29T09:04:02.124Z,53.41
2022-07-29T09:05:02.078Z,48.95
2022-07-29T09:06:02.072Z,52.66
2022-07-29T09:07:02.038Z,55.18
2022-07-29T09:08:02.028Z,54.72
2022-07-29T09:09:02.031Z,54.77
2022-07-29T09:10:02.017Z,51.48
2022-07-29T09:11:03.879Z,54.88
2022-07-29T09:12:02.001Z,54.54
2022-07-29T09:13:01.992Z,51.02
2022-07-29T09:14:01.985Z,49.34
2022-07-29T09:15:01.974Z,50.78
2022-07-29T09:16:07.077Z,52.28
2022-07-29T09:17:03.309Z,51.64
2022-07-29T09:18:01.953Z,51.76
2022-07-29T09:19:01.949Z,53.49
2022-07-29T09:20:01.947Z,52.44
2022-07-29T09:21:01.954Z,51.68
2022-07-29T09:22:03.270Z,53.54
2022-07-29T09:23:01.927Z,53.80
2022-07-29T09:24:01.914Z,53.92
2022-07-29T09:25:01.908Z,51.04
2022-07-29T09:26:01.931Z,53.26
2022-07-29T09:27:01.901Z,52.88
2022-07-29T09:28:01.892Z,52.92
2022-07-29T09:29:01.885Z,52.72
2022-07-29T09:30:01.895Z,54.06
2022-07-29T09:31:01.898Z,51.91
2022-07-29T09:32:01.884Z,53.92
2022-07-29T09:33:01.854Z,51.18
2022-07-29T09:34:01.850Z,51.30
2022-07-29T09:35:01.843Z,51.67
2022-07-29T09:36:02.021Z,52.40
2022-07-29T09:37:01.827Z,55.12
2022-07-29T09:38:01.814Z,49.80
2022-07-29T09:39:01.808Z,50.61
2022-07-29T09:40:01.808Z,52.42
2022-07-29T09:41:05.720Z,53.60
2022-07-29T09:42:01.789Z,54.10
2022-07-29T09:43:01.785Z,52.81
2022-07-29T09:44:01.772Z,46.83
2022-07-29T09:45:01.770Z,46.91
2022-07-29T09:46:01.771Z,48.23
2022-07-29T09:47:01.768Z,48.33
2022-07-29T09:48:01.744Z,49.67
2022-07-29T09:49:01.754Z,44.34
2022-07-29T09:50:01.733Z,48.03
2022-07-29T09:51:01.737Z,52.47
2022-07-29T09:52:01.716Z,49.07
2022-07-29T09:53:01.721Z,44.89
2022-07-29T09:54:01.699Z,52.30
2022-07-29T09:55:01.691Z,47.74
2022-07-29T09:56:01.707Z,48.11
2022-07-29T09:57:01.684Z,48.71
2022-07-29T09:58:01.666Z,48.35
2022-07-29T09:59:01.668Z,48.19
2022-07-29T10:00:01.655Z,49.78
2022-07-29T10:01:01.753Z,46.70
2022-07-29T10:02:01.649Z,40.22
2022-07-29T10:03:01.691Z,45.59
2022-07-29T10:04:01.628Z,50.76
2022-07-29T10:05:01.764Z,52.24
2022-07-29T10:06:01.609Z,48.14
2022-07-29T10:07:04.609Z,46.35
2022-07-29T10:08:01.594Z,49.96
2022-07-29T10:09:01.591Z,50.46
2022-07-29T10:10:01.580Z,46.50
2022-07-29T10:11:01.574Z,47.63
2022-07-29T10:12:01.783Z,44.79
2022-07-29T10:13:06.373Z,53.94
2022-07-29T10:14:02.613Z,46.56
2022-07-29T10:15:01.565Z,49.80
2022-07-29T10:16:01.582Z,52.11
2022-07-29T10:17:01.815Z,51.13
2022-07-29T10:18:01.733Z,53.68
2022-07-29T10:19:01.532Z,53.00
2022-07-29T10:20:01.516Z,46.36
2022-07-29T10:21:01.524Z,49.63
2022-07-29T10:22:01.838Z,45.68
2022-07-29T10:23:01.496Z,48.73
2022-07-29T10:24:01.723Z,50.90
2022-07-29T10:25:01.481Z,50.19
2022-07-29T10:26:01.474Z,51.34
2022-07-29T10:27:01.486Z,52.82
2022-07-29T10:28:01.460Z,45.62
2022-07-29T10:29:01.458Z,44.55
2022-07-29T10:30:01.444Z,49.67
2022-07-29T10:31:01.488Z,44.75
2022-07-29T10:32:01.442Z,46.33
2022-07-29T10:33:01.428Z,51.17
2022-07-29T10:34:01.411Z,49.17
2022-07-29T10:35:01.412Z,49.99
2022-07-29T10:36:01.424Z,47.86
2022-07-29T10:37:01.447Z,52.11
2022-07-29T10:38:01.386Z,49.33
2022-07-29T10:39:03.329Z,50.99
2022-07-29T10:40:01.373Z,49.76
2022-07-29T10:41:01.355Z,54.00
2022-07-29T10:42:01.370Z,49.69
2022-07-29T10:43:01.347Z,51.51
2022-07-29T10:44:01.373Z,47.04
2022-07-29T10:45:01.328Z,53.06
2022-07-29T10:46:01.348Z,49.83
2022-07-29T10:47:01.357Z,53.03
2022-07-29T10:48:01.308Z,54.11
2022-07-29T10:49:01.341Z,49.80
2022-07-29T10:50:01.694Z,47.08
2022-07-29T10:51:01.289Z,47.82
2022-07-29T10:52:01.293Z,52.16
2022-07-29T10:53:01.274Z,53.10
2022-07-29T10:54:01.266Z,52.67
2022-07-29T10:55:01.257Z,49.56
2022-07-29T10:56:01.260Z,49.08
2022-07-29T10:57:01.259Z,46.61
2022-07-29T10:58:01.245Z,44.71
2022-07-29T10:59:01.241Z,48.64
2022-07-29T11:00:01.230Z,47.38
2022-07-29T11:01:01.220Z,48.84
2022-07-29T11:02:27.728Z,46.79
2022-07-29T11:03:04.518Z,44.44
2022-07-29T11:04:01.202Z,47.68
2022-07-29T11:05:01.192Z,44.09
2022-07-29T11:06:01.189Z,47.34
2022-07-29T11:07:01.211Z,43.94
2022-07-29T11:08:02.289Z,48.11
2022-07-29T11:09:01.172Z,48.13
2022-07-29T11:10:01.190Z,46.00
2022-07-29T11:11:01.158Z,48.83
2022-07-29T11:12:01.594Z,48.68
2022-07-29T11:13:01.134Z,52.54
2022-07-29T11:14:01.140Z,48.29
2022-07-29T11:15:01.125Z,51.00
2022-07-29T11:16:01.141Z,45.42
2022-07-29T11:17:01.110Z,48.03
2022-07-29T11:18:01.119Z,44.19
2022-07-29T11:19:01.098Z,46.49
2022-07-29T11:20:01.092Z,44.30
2022-07-29T11:21:01.090Z,47.61
2022-07-29T11:22:01.223Z,50.33
2022-07-29T11:23:01.106Z,41.17
2022-07-29T11:24:01.066Z,40.62
2022-07-29T11:25:01.058Z,42.18
2022-07-29T11:26:01.058Z,50.39
2022-07-29T11:27:01.229Z,45.68
2022-07-29T11:28:01.065Z,44.17
2022-07-29T11:29:01.035Z,51.40
2022-07-29T11:30:01.366Z,42.97
2022-07-29T11:31:01.023Z,51.42
2022-07-29T11:32:01.025Z,46.65
2022-07-29T11:33:01.031Z,44.67
2022-07-29T11:34:05.510Z,42.93
2022-07-29T11:35:01.007Z,48.48
2022-07-29T11:36:03.321Z,45.27
2022-07-29T11:37:00.990Z,45.23
2022-07-29T11:38:01.004Z,50.10
2022-07-29T11:39:00.982Z,49.82
2022-07-29T11:40:02.275Z,46.53
2022-07-29T11:41:00.990Z,47.58
2022-07-29T11:42:05.005Z,46.31
2022-07-29T11:43:01.976Z,40.93
2022-07-29T11:44:01.306Z,51.66
2022-07-29T11:45:08.870Z,41.24
2022-07-29T11:46:01.948Z,49.72
2022-07-29T11:47:00.943Z,46.53
2022-07-29T11:48:29.642Z,47.88
2022-07-29T11:49:01.986Z,46.04
2022-07-29T11:50:00.934Z,45.94
2022-07-29T11:51:00.965Z,48.35
2022-07-29T11:52:01.254Z,46.03
2022-07-29T11:53:00.951Z,47.07
2022-07-29T11:54:05.256Z,43.44
2022-07-29T11:55:00.954Z,41.76
2022-07-29T11:57:01.881Z,48.57
2022-07-29T11:58:04.169Z,49.51
2022-07-29T11:59:00.873Z,47.93
2022-07-29T12:00:09.404Z,44.34
2022-07-29T12:01:04.656Z,45.92
2022-07-29T12:02:18.547Z,45.87
2022-07-29T12:03:01.914Z,47.97
2022-07-29T12:04:00.964Z,43.30
2022-07-29T12:05:00.842Z,46.26
2022-07-29T12:06:01.839Z,38.23
2022-07-29T12:07:00.863Z,45.52
2022-07-29T12:07:03.784Z,44.08
2022-07-29T12:08:00.840Z,51.11
2022-07-29T12:09:00.813Z,46.77
2022-07-29T12:10:00.813Z,42.04
2022-07-29T12:11:00.802Z,39.32
2022-07-29T12:12:05.238Z,42.48
2022-07-29T12:13:00.813Z,45.20
2022-07-29T12:14:00.799Z,48.66
2022-07-29T12:15:00.786Z,46.49
2022-07-29T12:16:00.831Z,45.29
2022-07-29T12:17:00.821Z,45.20
2022-07-29T12:18:03.900Z,46.71
2022-07-29T12:19:00.764Z,47.97
2022-07-29T12:20:00.758Z,42.78
2022-07-29T12:21:00.755Z,43.44
2022-07-29T12:22:01.156Z,47.64
2022-07-29T12:23:00.770Z,47.44
2022-07-29T12:24:05.476Z,44.21
2022-07-29T12:25:23.271Z,45.94
2022-07-29T12:26:01.737Z,40.99
2022-07-29T12:27:00.731Z,51.14
2022-07-29T12:28:00.729Z,44.93
2022-07-29T12:29:02.315Z,50.14
2022-07-29T12:30:00.741Z,41.47
2022-07-29T12:31:00.849Z,45.21
2022-07-29T12:32:01.069Z,46.22
2022-07-29T12:33:00.703Z,47.48
2022-07-29T12:34:00.717Z,42.19
2022-07-29T12:35:00.694Z,47.68
2022-07-29T12:36:07.552Z,40.74
2022-07-29T12:37:01.727Z,48.31
2022-07-29T12:38:00.684Z,43.68
2022-07-29T12:39:00.688Z,47.19
2022-07-29T12:40:00.674Z,49.74
2022-07-29T12:41:00.665Z,47.23
2022-07-29T12:42:04.838Z,40.13
2022-07-29T12:43:00.662Z,44.07
2022-07-29T12:44:00.681Z,48.60
2022-07-29T12:45:00.651Z,43.34
2022-07-29T12:46:00.653Z,47.87
2022-07-29T12:47:00.678Z,42.60
2022-07-29T12:48:00.644Z,44.54
2022-07-29T12:49:00.763Z,40.26
2022-07-29T12:50:00.635Z,45.44
2022-07-29T12:51:00.625Z,49.76
2022-07-29T12:52:00.895Z,44.06